ブリスベン空港の過去48時間の天気

ブリスベン空港 (Brisbane Airport M. O)

現在時刻: 11/27 08:50 AEST (11/26 22:50 UTC) 以下の時間は現地時間です。

過去48時間のMETAR気象情報
時間 風向 風速(m/s) 視程 気温(℃) 湿度(%) 気圧(hPa) 天気現象
27 08:30 南南東 4 10km以上 25 78 1010
27 08:00 4 10km以上 24 78 1010
27 07:30 4 10km以上 24 83 1010
27 07:00 4 10km以上 23 89 1010
27 06:30 3 10km以上 23 89 1010
27 06:00 4 10km以上 22 94 1009
27 05:39 4 10km以上 22 94 1009
27 05:30 4 10km以上 22 94 1008
27 05:00 南南西 4 10km以上 23 89 1008
27 04:30 南南西 3 10km以上 22 94 1007
27 04:00 南西 4 10km以上 23 94 1007
27 03:30 西 3 10km以上 23 94 1007
27 03:00 静穏 0 10km以上 23 94 1006
27 02:30 西 1 10km以上 23 94 1006
27 02:00 西 3 10km以上 23 94 1006
27 01:47 西 3 10km以上 23 94 1006
27 01:30 西 3 10km以上 23 94 1006
27 01:00 北西 3 10km以上 24 89 1007
27 00:30 5 10km以上 24 94 1007
27 00:00 5 10km以上 24 94 1007
26 23:30 5 10km以上 24 94 1007
26 23:19 5 10km以上 24 94 1007
26 23:00 5 10km以上 24 94 1007
26 22:30 6 10km以上 24 94 1008
26 22:06 6 10km以上 24 94 1008
26 22:00 6 10km以上 24 94 1008
26 21:30 7 10km以上 24 94 1008
26 21:00 7 10km以上 24 94 1007
26 20:52 6 10km以上 24 94 1007
26 20:31 8 10km以上 24 94 1007
26 20:00 8 10km以上 24 94 1007
26 19:30 9 10km以上 24 94 1007
26 19:00 9 10km以上 24 94 1007
26 18:30 10 10km以上 24 94 1006
26 18:00 北北東 8 10km以上 24 94 1006 弱いしゅう雨
26 17:30 北北東 9 10km以上 24 94 1005 弱いしゅう雨
26 17:00 北北東 9 10km以上 24 94 1005 弱いしゅう雨
26 16:30 8 10km以上 25 94 1005 弱いしゅう雨
26 16:00 北北東 9 10km以上 25 89 1005 弱いしゅう雨
26 15:30 北北東 10 10km以上 25 83 1005
26 15:00 北北東 10 10km以上 26 84 1005
26 14:30 北北東 10 10km以上 26 84 1005
26 14:00 北北東 10 10km以上 27 84 1005
26 13:30 北北東 9 10km以上 26 84 1006
26 13:00 北北東 8 10km以上 27 84 1006
26 12:30 北北東 7 10km以上 27 84 1006
26 12:00 北北東 8 10km以上 26 84 1007
26 11:30 8 10km以上 26 84 1007
26 11:00 8 10km以上 25 83 1008
26 10:30 8 10km以上 25 83 1008
26 10:00 8 10km以上 25 83 1008
26 09:30 6 10km以上 24 89 1008
26 09:00 6 10km以上 25 89 1008
26 08:30 7 5000m 24 89 1009 弱いしゅう雨
26 08:00 7 10km以上 24 89 1009 弱い霧雨
26 07:43 8 10km以上 24 89 1009 弱いしゅう雨
26 07:30 7 10km以上 24 89 1008
26 07:00 北北東 7 10km以上 24 89 1008
26 06:30 北北東 7 10km以上 24 89 1008
26 06:00 北北東 5 10km以上 23 94 1008
26 05:30 北北東 3 10km以上 23 94 1008
26 05:00 3 10km以上 23 94 1007 弱い雨
26 04:30 北北西 5 9000m 23 94 1008 弱い雨
26 04:00 5 8000m 23 94 1008 弱いしゅう雨
26 03:30 4 9000m 23 94 1007 弱い雨
26 03:13 北北西 4 8000m 23 94 1007 弱いしゅう雨
26 03:00 北西 4 5000m 23 94 1008 弱いしゅう雨
26 02:30 北西 4 9000m 23 94 1008 弱いしゅう雨
26 02:00 北北西 4 9000m 23 94 1008 弱いしゅう雨
26 01:30 西北西 3 10km以上 23 94 1008 弱いしゅう雨
26 01:00 6 10km以上 24 94 1009
26 00:30 5 10km以上 24 89 1009 弱いしゅう雨
26 00:00 5 10km以上 24 94 1009 弱いしゅう雨
25 23:30 4 10km以上 24 94 1009 周辺でしゅう雨
25 23:00 6 8000m 24 89 1010 弱いしゅう雨
25 22:30 5 10km以上 24 94 1010 弱い雨
25 22:00 北北東 4 10km以上 24 94 1010 弱い雨
25 21:30 4 10km以上 24 89 1011 弱い雨
25 21:00 6 10km以上 24 89 1011 弱い雨
25 20:41 北北東 5 10km以上 24 94 1011 弱いしゅう雨
25 20:30 北北東 4 10km以上 24 94 1011 弱いしゅう雨
25 20:00 北北東 4 10km以上 24 89 1010 弱いしゅう雨
25 19:58 4 10km以上 24 89 1010 弱いしゅう雨
25 19:30 北北東 7 10km以上 24 89 1010 弱い雨
25 19:00 6 10km以上 24 89 1010 弱い雨
25 18:30 7 10km以上 24 89 1010 弱い雨
25 18:00 7 10km以上 24 89 1010 弱い雨
25 17:30 7 10km以上 24 89 1010 弱い雨
25 17:00 6 10km以上 24 94 1009 弱い雨
25 16:30 北北東 5 10km以上 24 94 1009 弱い雨
25 16:00 6 10km以上 24 89 1010 弱い雨
25 15:30 6 10km以上 24 94 1010 弱い雨
25 15:00 6 9000m 24 94 1010 弱い雨
25 14:30 7 8000m 24 94 1010 弱いしゅう雨
25 14:00 北北東 7 10km以上 24 94 1011 弱いしゅう雨
25 13:30 北北東 7 10km以上 24 94 1011 弱いしゅう雨
25 13:00 北東 6 10km以上 25 89 1011
25 12:30 北北東 6 10km以上 25 89 1011
25 12:00 北北東 5 10km以上 25 83 1011
25 11:30 北北東 5 10km以上 24 94 1012
25 11:00 北北東 5 10km以上 24 89 1012 弱いしゅう雨
25 10:30 北東 5 10km以上 25 83 1012 弱いしゅう雨
25 10:00 北東 5 10km以上 24 94 1012
25 09:30 北北東 6 10km以上 24 89 1013
25 09:00 北東 5 2000m 22 94 1013 弱いしゅう雨
YBBN 262230Z 15007KT 9999 FEW019 OVC039 25/21 Q1010
YBBN 262200Z 17007KT 9999 FEW015 OVC033 24/20 Q1010
YBBN 262130Z 17007KT 9999 FEW013 OVC031 24/21 Q1010
YBBN 262100Z 18007KT 9999 FEW010 SCT024 OVC029 23/21 Q1010
YBBN 262030Z 18006KT 9999 SCT008 OVC018 23/21 Q1010 RF00/0/000/8
YBBN 262000Z 18007KT 9999 FEW003 OVC008 22/21 Q1009 RF00/0/000/8
YBBN 261939Z 18008KT 9999 BKN007 22/21 Q1009
YBBN 261930Z 19008KT 9999 SCT010 SCT280 22/21 Q1008
YBBN 261900Z 20007KT 9999 FEW010 SCT280 23/21 Q1008
YBBN 261830Z 20006KT 9999 FEW010 22/21 Q1007
YBBN 261800Z 22007KT 9999 FEW010 SCT070 23/22 Q1007
YBBN 261730Z 27005KT 9999 FEW007 BKN010 23/22 Q1007 RF00/0/000/8
YBBN 261700Z 00000KT 9999 BKN010 SCT070 23/22 Q1006 RF00/0/000/8
YBBN 261630Z 26002KT 9999 FEW010 SCT045 23/22 Q1006 RF00/0/000/8
YBBN 261600Z 26006KT 9999 BKN008 23/22 Q1006
YBBN 261547Z 27006KT 9999 BKN008 BKN045 23/22 Q1006 RF00/0/000/8
YBBN 261530Z 28005KT 9999 FEW009 SCT045 23/22 Q1006
YBBN 261500Z 32005KT 9999 SCT009 SCT045 24/22 Q1007 RF00/0/000/8
YBBN 261430Z 36009KT 9999 BKN009 BKN013 24/23 Q1007 RF00/0/000/8
YBBN 261400Z 36009KT 9999 BKN009 OVC013 24/23 Q1007 RF00/0/000/8
YBBN 261330Z 01010KT 9999 BKN009 24/23 Q1007
YBBN 261319Z 01009KT 9999 SCT009 SCT037 BKN085 24/23 Q1007 RF00/0/000/8
YBBN 261300Z 01010KT 9999 BKN009 SCT037 BKN165 24/23 Q1007 RF00/0/000/8
YBBN 261230Z 01012KT 9999 BKN009 24/23 Q1008
YBBN 261206Z 36012KT 9999 BKN009 BKN026 24/23 Q1008 RF00/0/000/8
YBBN 261200Z 01011KT 9999 SCT009 OVC028 24/23 Q1008
YBBN 261130Z 01014KT 9999 FEW009 SCT017 BKN026 24/23 Q1008
YBBN 261100Z 01013KT 9999 SCT011 BKN017 BKN235 24/23 Q1007 RF00/0/000/8
YBBN 261052Z 01012KT 9999 BKN011 BKN017 BKN250 24/23 Q1007 RF00.0/000.8
YBBN 261031Z AUTO 01015KT 9999 // SCT010 SCT026 24/23 Q1007
YBBN 261000Z AUTO 01016KT 9999 // OVC010 24/23 Q1007
YBBN 260930Z AUTO 01017KT 9999 // SCT010 24/23 Q1007
YBBN 260900Z AUTO 01017KT 9999 // BKN010 24/23 Q1007
YBBN 260830Z AUTO 01019KT 9999 // OVC010 24/23 Q1006
YBBN 260800Z 02015KT 9999 -SHRA BKN010 OVC100 24/23 Q1006 RF00/0/000/8 DL-SW/DL-W
YBBN 260730Z 02018KT 9999 -SHRA FEW010 SCT120 BKN250 24/23 Q1005
YBBN 260700Z 02017KT 9999 -SHRA FEW010 SCT060 BKN250 24/23 Q1005
YBBN 260630Z 01016KT 9999 -SHRA SCT008 BKN064 25/24 Q1005
YBBN 260600Z 02018KT 9999 -SHRA BKN008 BKN075 25/23 Q1005 RF00/0/000/0 DL-NW
YBBN 260530Z 02020KT 9999 FEW009 BKN087 25/22 Q1005
YBBN 260500Z 03019KT 9999 FEW007 BKN085 BKN250 26/23 Q1005
YBBN 260430Z 03019KT 9999 FEW020 SCT250 26/23 Q1005
YBBN 260400Z 03019KT 9999 FEW020 27/24 Q1005
YBBN 260330Z 02018KT 9999 FEW020 BKN250 26/23 Q1006
YBBN 260300Z 02016KT 9999 FEW019 BKN250 27/24 Q1006
YBBN 260230Z 02014KT 9999 SCT019 BKN260 27/24 Q1006
YBBN 260200Z 02015KT 9999 SCT019 BKN250 26/23 Q1007
YBBN 260130Z 01016KT 9999 FEW011 SCT019 BKN250 26/23 Q1007
YBBN 260100Z 01016KT 9999 FEW011 SCT020 BKN250 25/22 Q1008
YBBN 260030Z 01015KT 9999 FEW009 SCT018 BKN270 25/22 Q1008
YBBN 260000Z 36015KT 9999 FEW015 SCT020 BKN250 25/22 Q1008
YBBN 252330Z 36012KT 9999 SCT015 SCT020 BKN027 24/22 Q1008
YBBN 252300Z 36011KT 9999 FEW009 SCT018 BKN036 25/23 Q1008
YBBN 252230Z 01014KT 5000 -SHRA SCT013 BKN020 BKN029 24/22 Q1009
YBBN 252200Z 36014KT 9999 -DZ BKN013 OVC019 24/22 Q1009 RF00/0/006/0
YBBN 252143Z 01015KT 9999 -SHRA OVC013 24/22 Q1009 RF00/0/006/0
YBBN 252130Z 01013KT 9999 SCT015 OVC021 24/22 Q1008
YBBN 252100Z 03013KT 9999 FEW011 SCT020TCU BKN026 24/22 Q1008
YBBN 252030Z 03013KT 9999 FEW013 BKN120 24/22 Q1008
YBBN 252000Z 03009KT 9999 FEW009 SCT100 BKN130 23/22 Q1008
YBBN 251930Z 03005KT 9999 FEW009 SCT100 BKN140 23/22 Q1008
YBBN 251900Z 35005KT 9999 -RA FEW009 SCT020 BKN140 23/22 Q1007
YBBN 251830Z 34010KT 9000 -RA FEW009 SCT020 BKN100 23/22 Q1008
YBBN 251800Z 35009KT 8000 -SHRA FEW009 BKN020 BKN110 23/22 Q1008
YBBN 251730Z 35008KT 9000 -RA FEW009 SCT045 BKN100 23/22 Q1007
YBBN 251713Z 34007KT 8000 -SHRA FEW009 SCT012 BKN110 23/22 Q1007
YBBN 251700Z 32007KT 5000 -SHRA SCT009 BKN014 BKN110 23/22 Q1008
YBBN 251630Z 31007KT 270V330 9000 -SHRA SCT009 BKN012 23/22 Q1008
YBBN 251600Z 34007KT 9000 -SHRA BKN009 BKN014 23/22 Q1008 RF00/0/005/0
YBBN 251530Z 30006KT 9999 -SHRA BKN009 BKN014 23/22 Q1008 RF00/0/005/0
YBBN 251500Z 36011KT 9999 FEW008 BKN014 BKN130 24/23 Q1009 RF00/0/005/0
YBBN 251430Z 36010KT 9999 -SHRA SCT008 BKN014 24/22 Q1009 RF00/0/005/0
YBBN 251400Z 01009KT 9999 -SHRA FEW008 BKN014 BKN036 24/23 Q1009
YBBN 251330Z 01007KT 9999 VCSH FEW008 BKN014 BKN100 24/23 Q1009
YBBN 251300Z 36011KT 8000 -SHRA FEW008 BKN020 BKN100 24/22 Q1010
YBBN 251230Z 01010KT 9999 -RA FEW008 SCT016 BKN110 24/23 Q1010
YBBN 251200Z 02008KT 9999 -RA FEW008 SCT014 BKN090 24/23 Q1010
YBBN 251130Z 01008KT 9999 -RA FEW008 SCT016 BKN100 24/22 Q1011
YBBN 251100Z 36011KT 9999 -RA FEW008 SCT016 BKN110 24/22 Q1011
YBBN 251041Z 02009KT 9999 -SHRA FEW008 BKN016 BKN110 24/23 Q1011
YBBN 251030Z AUTO 02008KT 9999 -SHRA BKN014 OVC019 24/23 Q1011
YBBN 251000Z AUTO 02008KT 9999 -SHRA BKN014 24/22 Q1010 RF00/0/004/2
YBBN 250958Z AUTO 01008KT 9999 -SHRA BKN014 24/22 Q1010 RF00.0/004.2
YBBN 250930Z AUTO 02013KT 9999 -RA SCT014 BKN046 24/22 Q1010
YBBN 250900Z AUTO 01012KT 9999 -RA SCT100 BKN125 24/22 Q1010
YBBN 250830Z AUTO 01013KT 9999 -RA SCT014 BKN065 BKN082 24/22 Q1010
YBBN 250800Z 01013KT 9999 -RA FEW014 SCT039 OVC115 24/22 Q1010
YBBN 250730Z 01013KT 9999 -RA FEW014 BKN049 24/22 Q1010
YBBN 250700Z 01012KT 9999 -RA SCT013 BKN022 BKN033 24/23 Q1009
YBBN 250630Z 02009KT 9999 -RA FEW015 SCT019 BKN031 24/23 Q1009
YBBN 250600Z 36012KT 9999 -RA FEW014 BKN040 24/22 Q1010
YBBN 250530Z 01011KT 9999 -RA SCT010 BKN052 OVC066 24/23 Q1010
YBBN 250500Z 36011KT 9000 -RA SCT010 OVC060 24/23 Q1010
YBBN 250430Z 01013KT 8000 R01L/P2000N R01/P2000N -SHRA SCT012 SCT022 BKN048 24/23 Q1010
YBBN 250400Z 02013KT 9999 -SHRA FEW015 BKN080 24/23 Q1011
YBBN 250330Z 03013KT 9999 -SHRA FEW015 BKN070 BKN088 24/23 Q1011
YBBN 250300Z 04011KT 9999 FEW015 OVC250 25/23 Q1011
YBBN 250230Z 03011KT 9999 FEW015 SCT040 OVC150 25/23 Q1011
YBBN 250200Z 03009KT 9999 FEW017 SCT040 OVC140 25/22 Q1011
YBBN 250130Z 03009KT 9999 FEW018 BKN052 OVC120 24/23 Q1012
YBBN 250100Z 03010KT 9999 -SHRA FEW018 SCT027 BKN041 24/22 Q1012
YBBN 250030Z 04010KT 9999 -SHRA FEW012 SCT051 OVC110 25/22 Q1012
YBBN 250000Z 04009KT 9999 FEW009 SCT025 OVC120 24/23 Q1012
YBBN 242330Z 03011KT 9999 FEW009 SCT040 BKN105 24/22 Q1013
YBBN 242300Z 05009KT 2000 -SHRA FEW014 BKN019 OVC029 22/21 Q1013